Search for airport 
image banner adimage banner adimage banner ad
image banner ad

KAAT - Alturas Muni

Located in Alturas, United States

ICAO - AAT, IATA -

Data provided by Airmate  

General information

Coordinates: N41°28'58" W120°33'56"
Elevation is 4378 feet MSL.
Magnetic variation is 16° East
View others Airports in California

Operational data

Special qualification required
Current time UTC:
Current local time:
Weather
METAR: KAAT 221355Z AUTO 07003KT 10SM CLR 15/03 A3002 RMK AO2 SLP117 T01500033
View NOTAMs / SUP AIP / TFR affecting this airport [VIEW]
Communications frequencies: [VIEW]

Runways:

RWY identifierQFULength (ft)Width (ft)SurfaceLDA (ft)
0346°250660ASPH
21226°250660ASPH
13148°422850ASPH
31328°422850ASPH

Airport contact information

Address: Alturas United States

Satellite view of KAAT